sensor_id;sensor_type;location;lat;lon;timestamp;P1;durP1;ratioP1;P2;durP2;ratioP2
3597;SDS011;1813;52.016;8.714;2024-03-23T00:55:36;24.73;;;8.20;;
3597;SDS011;1813;52.016;8.714;2024-03-23T00:58:06;21.63;;;8.37;;
3597;SDS011;1813;52.016;8.714;2024-03-23T01:00:40;26.97;;;8.70;;
3597;SDS011;1813;52.016;8.714;2024-03-23T01:03:15;21.70;;;8.40;;
3597;SDS011;1813;52.016;8.714;2024-03-23T01:05:46;20.17;;;7.73;;
3597;SDS011;1813;52.016;8.714;2024-03-23T01:08:17;27.97;;;7.90;;
3597;SDS011;1813;52.016;8.714;2024-03-23T01:10:53;18.77;;;7.83;;
3597;SDS011;1813;52.016;8.714;2024-03-23T01:13:25;22.13;;;6.87;;
3597;SDS011;1813;52.016;8.714;2024-03-23T01:15:56;24.03;;;7.30;;
3597;SDS011;1813;52.016;8.714;2024-03-23T01:18:30;25.50;;;7.10;;
3597;SDS011;1813;52.016;8.714;2024-03-23T01:21:01;27.07;;;7.43;;
3597;SDS011;1813;52.016;8.714;2024-03-23T01:23:32;20.03;;;6.87;;
3597;SDS011;1813;52.016;8.714;2024-03-23T01:26:03;22.03;;;6.70;;
3597;SDS011;1813;52.016;8.714;2024-03-23T01:28:34;25.27;;;5.90;;
3597;SDS011;1813;52.016;8.714;2024-03-23T01:31:05;25.87;;;6.97;;
3597;SDS011;1813;52.016;8.714;2024-03-23T01:33:39;20.93;;;6.57;;
3597;SDS011;1813;52.016;8.714;2024-03-23T01:36:10;21.50;;;7.20;;
3597;SDS011;1813;52.016;8.714;2024-03-23T01:38:40;22.93;;;6.77;;
3597;SDS011;1813;52.016;8.714;2024-03-23T01:41:12;21.13;;;6.70;;
3597;SDS011;1813;52.016;8.714;2024-03-23T01:43:42;25.80;;;7.80;;
3597;SDS011;1813;52.016;8.714;2024-03-23T01:46:16;29.63;;;7.27;;
3597;SDS011;1813;52.016;8.714;2024-03-23T01:48:50;27.63;;;7.47;;
3597;SDS011;1813;52.016;8.714;2024-03-23T01:51:21;32.67;;;7.50;;
3597;SDS011;1813;52.016;8.714;2024-03-23T01:53:52;30.67;;;7.13;;
3597;SDS011;1813;52.016;8.714;2024-03-23T01:56:24;25.80;;;7.60;;
3597;SDS011;1813;52.016;8.714;2024-03-23T01:58:55;27.77;;;7.43;;
3597;SDS011;1813;52.016;8.714;2024-03-23T02:01:26;21.00;;;6.53;;
3597;SDS011;1813;52.016;8.714;2024-03-23T02:04:01;25.63;;;6.87;;
3597;SDS011;1813;52.016;8.714;2024-03-23T02:06:32;24.37;;;6.73;;
3597;SDS011;1813;52.016;8.714;2024-03-23T02:09:03;21.97;;;6.40;;
3597;SDS011;1813;52.016;8.714;2024-03-23T02:11:34;18.03;;;6.23;;
3597;SDS011;1813;52.016;8.714;2024-03-23T02:14:05;27.80;;;6.93;;
3597;SDS011;1813;52.016;8.714;2024-03-23T02:16:36;24.33;;;6.70;;
3597;SDS011;1813;52.016;8.714;2024-03-23T02:19:10;33.47;;;7.57;;
3597;SDS011;1813;52.016;8.714;2024-03-23T02:21:41;22.40;;;6.73;;
3597;SDS011;1813;52.016;8.714;2024-03-23T02:24:14;22.33;;;6.90;;
3597;SDS011;1813;52.016;8.714;2024-03-23T02:26:46;24.47;;;7.60;;
3597;SDS011;1813;52.016;8.714;2024-03-23T02:29:19;26.60;;;7.00;;
3597;SDS011;1813;52.016;8.714;2024-03-23T02:31:49;20.47;;;6.90;;
3597;SDS011;1813;52.016;8.714;2024-03-23T02:34:20;22.83;;;7.57;;
3597;SDS011;1813;52.016;8.714;2024-03-23T02:36:53;22.87;;;7.10;;
3597;SDS011;1813;52.016;8.714;2024-03-23T02:39:27;20.17;;;7.37;;
3597;SDS011;1813;52.016;8.714;2024-03-23T02:41:57;24.20;;;7.30;;
3597;SDS011;1813;52.016;8.714;2024-03-23T02:44:28;22.33;;;7.90;;
3597;SDS011;1813;52.016;8.714;2024-03-23T02:46:59;23.43;;;7.20;;
3597;SDS011;1813;52.016;8.714;2024-03-23T02:49:30;25.40;;;8.37;;
3597;SDS011;1813;52.016;8.714;2024-03-23T02:52:01;21.07;;;7.20;;
3597;SDS011;1813;52.016;8.714;2024-03-23T02:54:35;22.60;;;8.40;;
3597;SDS011;1813;52.016;8.714;2024-03-23T02:57:06;21.07;;;8.20;;
3597;SDS011;1813;52.016;8.714;2024-03-23T02:59:37;25.10;;;8.17;;
3597;SDS011;1813;52.016;8.714;2024-03-23T03:02:08;20.37;;;7.07;;
3597;SDS011;1813;52.016;8.714;2024-03-23T03:04:39;17.37;;;5.90;;
3597;SDS011;1813;52.016;8.714;2024-03-23T03:07:10;15.70;;;6.00;;
3597;SDS011;1813;52.016;8.714;2024-03-23T03:09:43;23.27;;;6.20;;
3597;SDS011;1813;52.016;8.714;2024-03-23T03:12:14;17.03;;;5.73;;
3597;SDS011;1813;52.016;8.714;2024-03-23T03:14:45;16.30;;;5.87;;
3597;SDS011;1813;52.016;8.714;2024-03-23T03:17:16;11.77;;;5.27;;
3597;SDS011;1813;52.016;8.714;2024-03-23T03:19:52;11.50;;;5.03;;
3597;SDS011;1813;52.016;8.714;2024-03-23T03:22:23;10.10;;;4.50;;
3597;SDS011;1813;52.016;8.714;2024-03-23T03:24:56;13.90;;;4.90;;
3597;SDS011;1813;52.016;8.714;2024-03-23T03:27:27;12.90;;;4.67;;
3597;SDS011;1813;52.016;8.714;2024-03-23T03:29:58;12.63;;;4.47;;
3597;SDS011;1813;52.016;8.714;2024-03-23T03:32:29;13.17;;;4.77;;
3597;SDS011;1813;52.016;8.714;2024-03-23T03:35:00;14.07;;;4.90;;
3597;SDS011;1813;52.016;8.714;2024-03-23T03:37:31;14.30;;;4.77;;
3597;SDS011;1813;52.016;8.714;2024-03-23T03:40:05;16.30;;;5.40;;
3597;SDS011;1813;52.016;8.714;2024-03-23T03:42:37;11.53;;;4.80;;
3597;SDS011;1813;52.016;8.714;2024-03-23T03:45:08;10.60;;;4.70;;
3597;SDS011;1813;52.016;8.714;2024-03-23T03:47:39;8.57;;;4.40;;
3597;SDS011;1813;52.016;8.714;2024-03-23T03:50:10;12.60;;;4.70;;
3597;SDS011;1813;52.016;8.714;2024-03-23T03:52:41;9.90;;;4.53;;
3597;SDS011;1813;52.016;8.714;2024-03-23T03:55:15;15.07;;;5.20;;
3597;SDS011;1813;52.016;8.714;2024-03-23T03:57:47;15.67;;;5.20;;
3597;SDS011;1813;52.016;8.714;2024-03-23T04:00:17;10.57;;;4.40;;
3597;SDS011;1813;52.016;8.714;2024-03-23T04:02:49;11.30;;;5.03;;
3597;SDS011;1813;52.016;8.714;2024-03-23T04:05:20;15.20;;;4.27;;
3597;SDS011;1813;52.016;8.714;2024-03-23T04:07:51;16.50;;;4.60;;
3597;SDS011;1813;52.016;8.714;2024-03-23T04:10:24;9.80;;;4.40;;
3597;SDS011;1813;52.016;8.714;2024-03-23T04:12:55;19.60;;;5.00;;
3597;SDS011;1813;52.016;8.714;2024-03-23T04:15:26;14.40;;;4.73;;
3597;SDS011;1813;52.016;8.714;2024-03-23T04:17:57;13.93;;;5.10;;
3597;SDS011;1813;52.016;8.714;2024-03-23T04:20:28;12.27;;;4.80;;
3597;SDS011;1813;52.016;8.714;2024-03-23T04:23:00;11.40;;;5.00;;
3597;SDS011;1813;52.016;8.714;2024-03-23T04:25:33;13.80;;;4.67;;
3597;SDS011;1813;52.016;8.714;2024-03-23T04:28:04;13.57;;;4.77;;
3597;SDS011;1813;52.016;8.714;2024-03-23T04:30:35;15.00;;;5.10;;
3597;SDS011;1813;52.016;8.714;2024-03-23T04:33:06;13.90;;;4.50;;
3597;SDS011;1813;52.016;8.714;2024-03-23T04:35:37;13.83;;;4.27;;
3597;SDS011;1813;52.016;8.714;2024-03-23T04:38:08;11.00;;;4.70;;
3597;SDS011;1813;52.016;8.714;2024-03-23T04:40:41;13.17;;;4.43;;
3597;SDS011;1813;52.016;8.714;2024-03-23T04:43:13;15.43;;;4.77;;
3597;SDS011;1813;52.016;8.714;2024-03-23T04:45:44;14.70;;;4.43;;
3597;SDS011;1813;52.016;8.714;2024-03-23T04:48:15;11.77;;;4.97;;
3597;SDS011;1813;52.016;8.714;2024-03-23T04:50:46;16.30;;;4.90;;
3597;SDS011;1813;52.016;8.714;2024-03-23T04:53:17;11.93;;;4.77;;
3597;SDS011;1813;52.016;8.714;2024-03-23T04:55:51;15.50;;;5.50;;
3597;SDS011;1813;52.016;8.714;2024-03-23T04:58:22;16.23;;;5.60;;
3597;SDS011;1813;52.016;8.714;2024-03-23T05:00:54;12.13;;;5.10;;
3597;SDS011;1813;52.016;8.714;2024-03-23T05:03:25;16.40;;;5.60;;
3597;SDS011;1813;52.016;8.714;2024-03-23T05:05:56;16.43;;;6.20;;
3597;SDS011;1813;52.016;8.714;2024-03-23T05:08:27;12.20;;;5.90;;
3597;SDS011;1813;52.016;8.714;2024-03-23T05:11:00;21.20;;;6.80;;
3597;SDS011;1813;52.016;8.714;2024-03-23T05:13:31;18.40;;;6.00;;
3597;SDS011;1813;52.016;8.714;2024-03-23T05:16:02;17.90;;;6.10;;
3597;SDS011;1813;52.016;8.714;2024-03-23T05:18:33;18.83;;;6.50;;
3597;SDS011;1813;52.016;8.714;2024-03-23T05:21:04;15.83;;;6.00;;
3597;SDS011;1813;52.016;8.714;2024-03-23T05:23:35;12.70;;;6.40;;
3597;SDS011;1813;52.016;8.714;2024-03-23T05:26:08;16.47;;;5.33;;
3597;SDS011;1813;52.016;8.714;2024-03-23T05:28:39;11.63;;;4.43;;
3597;SDS011;1813;52.016;8.714;2024-03-23T05:31:11;13.93;;;4.80;;
3597;SDS011;1813;52.016;8.714;2024-03-23T05:33:43;13.80;;;4.27;;
3597;SDS011;1813;52.016;8.714;2024-03-23T05:36:13;10.13;;;3.20;;
3597;SDS011;1813;52.016;8.714;2024-03-23T05:38:44;12.00;;;3.77;;
3597;SDS011;1813;52.016;8.714;2024-03-23T05:41:18;10.67;;;3.13;;
3597;SDS011;1813;52.016;8.714;2024-03-23T05:43:49;10.97;;;3.23;;
3597;SDS011;1813;52.016;8.714;2024-03-23T05:46:20;9.17;;;3.33;;
3597;SDS011;1813;52.016;8.714;2024-03-23T05:48:51;9.20;;;3.13;;
3597;SDS011;1813;52.016;8.714;2024-03-23T05:51:30;11.77;;;3.20;;
3597;SDS011;1813;52.016;8.714;2024-03-23T05:54:01;10.97;;;3.43;;
3597;SDS011;1813;52.016;8.714;2024-03-23T05:56:35;16.07;;;3.50;;
3597;SDS011;1813;52.016;8.714;2024-03-23T05:59:05;11.60;;;3.60;;
3597;SDS011;1813;52.016;8.714;2024-03-23T06:01:36;12.10;;;4.20;;
3597;SDS011;1813;52.016;8.714;2024-03-23T06:04:07;12.13;;;4.40;;
3597;SDS011;1813;52.016;8.714;2024-03-23T06:06:38;14.97;;;5.00;;
3597;SDS011;1813;52.016;8.714;2024-03-23T06:09:09;21.67;;;6.13;;
3597;SDS011;1813;52.016;8.714;2024-03-23T06:11:42;17.40;;;6.30;;
3597;SDS011;1813;52.016;8.714;2024-03-23T06:14:13;22.47;;;6.73;;
3597;SDS011;1813;52.016;8.714;2024-03-23T06:16:44;27.83;;;7.47;;
3597;SDS011;1813;52.016;8.714;2024-03-23T06:19:15;26.63;;;6.77;;
3597;SDS011;1813;52.016;8.714;2024-03-23T06:21:46;28.57;;;7.40;;
3597;SDS011;1813;52.016;8.714;2024-03-23T06:24:16;28.40;;;7.90;;
3597;SDS011;1813;52.016;8.714;2024-03-23T06:26:50;29.63;;;7.93;;
3597;SDS011;1813;52.016;8.714;2024-03-23T06:29:22;25.30;;;8.63;;
3597;SDS011;1813;52.016;8.714;2024-03-23T06:31:56;34.03;;;8.63;;
3597;SDS011;1813;52.016;8.714;2024-03-23T06:34:27;28.80;;;9.30;;
3597;SDS011;1813;52.016;8.714;2024-03-23T06:36:57;32.90;;;10.10;;
3597;SDS011;1813;52.016;8.714;2024-03-23T06:39:29;34.77;;;10.20;;
3597;SDS011;1813;52.016;8.714;2024-03-23T06:42:03;33.50;;;10.47;;
3597;SDS011;1813;52.016;8.714;2024-03-23T06:44:34;28.73;;;10.20;;
3597;SDS011;1813;52.016;8.714;2024-03-23T06:47:05;26.63;;;9.80;;
3597;SDS011;1813;52.016;8.714;2024-03-23T06:49:41;39.50;;;11.70;;
3597;SDS011;1813;52.016;8.714;2024-03-23T06:52:11;35.80;;;12.00;;
3597;SDS011;1813;52.016;8.714;2024-03-23T06:54:42;37.80;;;11.73;;
3597;SDS011;1813;52.016;8.714;2024-03-23T06:57:15;35.37;;;11.70;;
3597;SDS011;1813;52.016;8.714;2024-03-23T06:59:46;31.33;;;11.90;;
3597;SDS011;1813;52.016;8.714;2024-03-23T07:02:18;32.87;;;12.07;;
3597;SDS011;1813;52.016;8.714;2024-03-23T07:04:48;37.23;;;11.80;;
3597;SDS011;1813;52.016;8.714;2024-03-23T07:07:19;30.40;;;11.60;;
3597;SDS011;1813;52.016;8.714;2024-03-23T07:09:51;39.77;;;12.37;;
3597;SDS011;1813;52.016;8.714;2024-03-23T07:12:25;40.33;;;12.40;;
3597;SDS011;1813;52.016;8.714;2024-03-23T07:14:56;35.87;;;12.97;;
3597;SDS011;1813;52.016;8.714;2024-03-23T07:17:27;33.40;;;12.73;;
3597;SDS011;1813;52.016;8.714;2024-03-23T07:19:57;39.93;;;12.83;;
3597;SDS011;1813;52.016;8.714;2024-03-23T07:22:28;40.27;;;12.63;;
3597;SDS011;1813;52.016;8.714;2024-03-23T07:25:00;36.00;;;12.30;;
3597;SDS011;1813;52.016;8.714;2024-03-23T07:27:36;40.70;;;13.47;;
3597;SDS011;1813;52.016;8.714;2024-03-23T07:30:07;34.10;;;12.93;;
3597;SDS011;1813;52.016;8.714;2024-03-23T07:32:39;40.33;;;13.17;;
3597;SDS011;1813;52.016;8.714;2024-03-23T07:35:10;39.33;;;12.20;;
3597;SDS011;1813;52.016;8.714;2024-03-23T07:37:47;41.60;;;11.97;;
3597;SDS011;1813;52.016;8.714;2024-03-23T07:40:17;38.23;;;12.70;;
3597;SDS011;1813;52.016;8.714;2024-03-23T07:42:51;38.53;;;13.10;;
3597;SDS011;1813;52.016;8.714;2024-03-23T07:45:22;37.70;;;12.27;;
3597;SDS011;1813;52.016;8.714;2024-03-23T07:47:52;39.30;;;13.30;;
3597;SDS011;1813;52.016;8.714;2024-03-23T07:50:24;37.60;;;12.90;;
3597;SDS011;1813;52.016;8.714;2024-03-23T07:52:54;33.73;;;12.77;;
3597;SDS011;1813;52.016;8.714;2024-03-23T07:55:25;27.40;;;11.00;;
3597;SDS011;1813;52.016;8.714;2024-03-23T07:57:59;26.23;;;11.30;;
3597;SDS011;1813;52.016;8.714;2024-03-23T08:00:29;38.73;;;12.03;;
3597;SDS011;1813;52.016;8.714;2024-03-23T08:03:01;31.03;;;12.73;;
3597;SDS011;1813;52.016;8.714;2024-03-23T08:05:31;25.90;;;9.83;;
3597;SDS011;1813;52.016;8.714;2024-03-23T08:08:03;33.47;;;12.93;;
3597;SDS011;1813;52.016;8.714;2024-03-23T08:10:34;36.17;;;12.17;;
3597;SDS011;1813;52.016;8.714;2024-03-23T08:13:08;30.43;;;11.40;;
3597;SDS011;1813;52.016;8.714;2024-03-23T08:15:38;30.23;;;11.83;;
3597;SDS011;1813;52.016;8.714;2024-03-23T08:18:10;28.50;;;10.03;;
3597;SDS011;1813;52.016;8.714;2024-03-23T08:20:42;33.47;;;13.10;;
3597;SDS011;1813;52.016;8.714;2024-03-23T08:23:13;36.23;;;12.77;;
3597;SDS011;1813;52.016;8.714;2024-03-23T08:25:44;40.37;;;13.40;;
3597;SDS011;1813;52.016;8.714;2024-03-23T08:28:17;22.93;;;10.90;;
3597;SDS011;1813;52.016;8.714;2024-03-23T08:30:48;25.30;;;11.07;;
3597;SDS011;1813;52.016;8.714;2024-03-23T08:33:22;30.40;;;11.13;;
3597;SDS011;1813;52.016;8.714;2024-03-23T08:35:54;27.73;;;9.90;;
3597;SDS011;1813;52.016;8.714;2024-03-23T08:38:26;33.10;;;10.67;;
3597;SDS011;1813;52.016;8.714;2024-03-23T08:41:00;24.33;;;10.00;;
3597;SDS011;1813;52.016;8.714;2024-03-23T08:43:35;26.60;;;10.57;;
3597;SDS011;1813;52.016;8.714;2024-03-23T08:46:07;22.00;;;10.13;;
3597;SDS011;1813;52.016;8.714;2024-03-23T08:48:39;24.47;;;9.13;;
3597;SDS011;1813;52.016;8.714;2024-03-23T08:51:12;20.77;;;8.87;;
3597;SDS011;1813;52.016;8.714;2024-03-23T08:53:45;24.83;;;9.30;;
3597;SDS011;1813;52.016;8.714;2024-03-23T08:56:18;24.17;;;8.73;;
3597;SDS011;1813;52.016;8.714;2024-03-23T08:58:51;22.27;;;8.97;;
3597;SDS011;1813;52.016;8.714;2024-03-23T09:01:22;20.27;;;8.00;;
3597;SDS011;1813;52.016;8.714;2024-03-23T09:03:53;24.07;;;8.27;;
3597;SDS011;1813;52.016;8.714;2024-03-23T09:06:24;21.40;;;8.30;;
3597;SDS011;1813;52.016;8.714;2024-03-23T09:08:55;20.33;;;7.40;;
3597;SDS011;1813;52.016;8.714;2024-03-23T09:11:25;21.63;;;7.30;;
3597;SDS011;1813;52.016;8.714;2024-03-23T09:13:59;23.30;;;8.13;;
3597;SDS011;1813;52.016;8.714;2024-03-23T09:16:30;21.63;;;7.23;;
3597;SDS011;1813;52.016;8.714;2024-03-23T09:19:00;16.13;;;7.50;;
3597;SDS011;1813;52.016;8.714;2024-03-23T09:21:31;21.07;;;7.43;;
3597;SDS011;1813;52.016;8.714;2024-03-23T09:24:02;26.50;;;6.50;;
3597;SDS011;1813;52.016;8.714;2024-03-23T09:26:33;14.50;;;5.93;;
3597;SDS011;1813;52.016;8.714;2024-03-23T09:29:06;16.27;;;5.40;;
3597;SDS011;1813;52.016;8.714;2024-03-23T09:31:37;20.13;;;6.50;;
3597;SDS011;1813;52.016;8.714;2024-03-23T09:34:08;22.07;;;6.50;;
3597;SDS011;1813;52.016;8.714;2024-03-23T09:36:39;16.47;;;6.93;;
3597;SDS011;1813;52.016;8.714;2024-03-23T09:39:10;16.63;;;7.10;;
3597;SDS011;1813;52.016;8.714;2024-03-23T09:41:40;16.07;;;7.10;;
3597;SDS011;1813;52.016;8.714;2024-03-23T09:44:14;20.97;;;7.23;;
3597;SDS011;1813;52.016;8.714;2024-03-23T09:46:45;13.70;;;5.90;;
3597;SDS011;1813;52.016;8.714;2024-03-23T09:49:15;18.17;;;6.37;;
3597;SDS011;1813;52.016;8.714;2024-03-23T09:51:46;14.83;;;5.97;;
3597;SDS011;1813;52.016;8.714;2024-03-23T09:54:17;13.37;;;5.30;;
3597;SDS011;1813;52.016;8.714;2024-03-23T09:56:48;8.80;;;4.47;;
3597;SDS011;1813;52.016;8.714;2024-03-23T09:59:21;15.87;;;5.77;;
3597;SDS011;1813;52.016;8.714;2024-03-23T10:01:52;15.73;;;5.40;;
3597;SDS011;1813;52.016;8.714;2024-03-23T10:07:13;12.63;;;5.23;;
3597;SDS011;1813;52.016;8.714;2024-03-23T10:09:44;14.60;;;5.90;;
3597;SDS011;1813;52.016;8.714;2024-03-23T10:12:16;23.33;;;6.40;;
3597;SDS011;1813;52.016;8.714;2024-03-23T10:14:50;12.80;;;5.30;;
3597;SDS011;1813;52.016;8.714;2024-03-23T10:17:21;13.17;;;5.70;;
3597;SDS011;1813;52.016;8.714;2024-03-23T10:19:53;12.07;;;4.67;;
3597;SDS011;1813;52.016;8.714;2024-03-23T10:22:26;11.07;;;4.03;;
3597;SDS011;1813;52.016;8.714;2024-03-23T10:24:57;12.00;;;4.47;;
3597;SDS011;1813;52.016;8.714;2024-03-23T10:27:39;9.83;;;4.50;;
3597;SDS011;1813;52.016;8.714;2024-03-23T10:30:13;9.37;;;4.03;;
3597;SDS011;1813;52.016;8.714;2024-03-23T10:32:44;14.50;;;4.40;;
3597;SDS011;1813;52.016;8.714;2024-03-23T10:35:16;8.73;;;3.83;;
3597;SDS011;1813;52.016;8.714;2024-03-23T10:37:49;12.07;;;4.03;;
3597;SDS011;1813;52.016;8.714;2024-03-23T10:40:21;8.90;;;3.90;;
3597;SDS011;1813;52.016;8.714;2024-03-23T10:42:54;10.60;;;3.90;;
3597;SDS011;1813;52.016;8.714;2024-03-23T10:45:31;11.07;;;4.13;;
3597;SDS011;1813;52.016;8.714;2024-03-23T10:48:01;9.53;;;4.40;;
3597;SDS011;1813;52.016;8.714;2024-03-23T10:50:33;8.97;;;4.47;;
3597;SDS011;1813;52.016;8.714;2024-03-23T10:53:04;16.80;;;5.00;;
3597;SDS011;1813;52.016;8.714;2024-03-23T10:55:35;14.30;;;5.03;;
3597;SDS011;1813;52.016;8.714;2024-03-23T10:58:06;12.97;;;5.27;;
3597;SDS011;1813;52.016;8.714;2024-03-23T11:00:40;16.50;;;5.77;;
3597;SDS011;1813;52.016;8.714;2024-03-23T11:06:00;11.03;;;5.60;;
3597;SDS011;1813;52.016;8.714;2024-03-23T11:08:32;13.70;;;5.60;;
3597;SDS011;1813;52.016;8.714;2024-03-23T11:11:17;11.27;;;5.00;;
3597;SDS011;1813;52.016;8.714;2024-03-23T11:13:49;11.93;;;5.90;;
3597;SDS011;1813;52.016;8.714;2024-03-23T11:16:26;11.33;;;4.23;;
3597;SDS011;1813;52.016;8.714;2024-03-23T11:21:58;9.83;;;3.50;;
3597;SDS011;1813;52.016;8.714;2024-03-23T11:24:29;7.60;;;3.20;;
3597;SDS011;1813;52.016;8.714;2024-03-23T11:27:03;7.70;;;2.93;;
3597;SDS011;1813;52.016;8.714;2024-03-23T11:29:46;7.00;;;3.43;;
3597;SDS011;1813;52.016;8.714;2024-03-23T11:32:19;7.27;;;3.63;;
3597;SDS011;1813;52.016;8.714;2024-03-23T11:34:51;8.13;;;4.10;;
3597;SDS011;1813;52.016;8.714;2024-03-23T11:37:22;7.77;;;4.10;;
3597;SDS011;1813;52.016;8.714;2024-03-23T11:39:52;7.83;;;3.70;;
3597;SDS011;1813;52.016;8.714;2024-03-23T11:42:23;8.40;;;2.63;;
3597;SDS011;1813;52.016;8.714;2024-03-23T11:44:54;5.27;;;2.83;;
3597;SDS011;1813;52.016;8.714;2024-03-23T11:47:27;1.77;;;1.67;;
3597;SDS011;1813;52.016;8.714;2024-03-23T11:49:58;4.40;;;2.33;;
3597;SDS011;1813;52.016;8.714;2024-03-23T11:52:29;4.43;;;2.50;;
3597;SDS011;1813;52.016;8.714;2024-03-23T11:55:04;2.40;;;1.90;;
3597;SDS011;1813;52.016;8.714;2024-03-23T11:57:35;3.20;;;2.10;;
3597;SDS011;1813;52.016;8.714;2024-03-23T12:00:20;17.37;;;3.13;;
3597;SDS011;1813;52.016;8.714;2024-03-23T12:02:55;5.00;;;2.70;;
3597;SDS011;1813;52.016;8.714;2024-03-23T12:05:30;4.97;;;2.53;;
3597;SDS011;1813;52.016;8.714;2024-03-23T12:10:52;9.47;;;5.70;;
3597;SDS011;1813;52.016;8.714;2024-03-23T12:13:23;6.13;;;3.13;;
3597;SDS011;1813;52.016;8.714;2024-03-23T12:15:54;5.50;;;2.90;;
3597;SDS011;1813;52.016;8.714;2024-03-23T12:18:34;5.57;;;3.07;;
3597;SDS011;1813;52.016;8.714;2024-03-23T12:21:05;8.60;;;3.27;;
3597;SDS011;1813;52.016;8.714;2024-03-23T12:23:38;5.33;;;3.03;;
3597;SDS011;1813;52.016;8.714;2024-03-23T12:26:09;7.77;;;4.13;;
3597;SDS011;1813;52.016;8.714;2024-03-23T12:28:40;6.30;;;4.00;;
3597;SDS011;1813;52.016;8.714;2024-03-23T12:31:11;6.90;;;3.73;;
3597;SDS011;1813;52.016;8.714;2024-03-23T12:33:45;6.50;;;3.60;;
3597;SDS011;1813;52.016;8.714;2024-03-23T12:36:15;9.93;;;3.80;;
3597;SDS011;1813;52.016;8.714;2024-03-23T12:38:46;11.17;;;3.37;;
3597;SDS011;1813;52.016;8.714;2024-03-23T12:41:18;8.30;;;3.60;;
3597;SDS011;1813;52.016;8.714;2024-03-23T12:43:48;7.63;;;3.40;;
3597;SDS011;1813;52.016;8.714;2024-03-23T12:46:20;6.00;;;2.97;;
3597;SDS011;1813;52.016;8.714;2024-03-23T12:48:53;5.73;;;3.33;;
3597;SDS011;1813;52.016;8.714;2024-03-23T12:51:24;2.97;;;1.80;;
3597;SDS011;1813;52.016;8.714;2024-03-23T12:53:55;1.53;;;1.40;;
3597;SDS011;1813;52.016;8.714;2024-03-23T12:56:27;1.60;;;1.50;;
3597;SDS011;1813;52.016;8.714;2024-03-23T12:58:58;3.60;;;1.47;;
3597;SDS011;1813;52.016;8.714;2024-03-23T13:01:29;1.63;;;1.50;;
3597;SDS011;1813;52.016;8.714;2024-03-23T13:04:03;3.97;;;1.30;;
3597;SDS011;1813;52.016;8.714;2024-03-23T13:06:34;2.03;;;1.90;;
3597;SDS011;1813;52.016;8.714;2024-03-23T13:09:05;3.37;;;2.03;;
3597;SDS011;1813;52.016;8.714;2024-03-23T13:11:35;2.20;;;2.03;;
3597;SDS011;1813;52.016;8.714;2024-03-23T13:14:06;5.10;;;2.30;;
3597;SDS011;1813;52.016;8.714;2024-03-23T13:16:37;6.00;;;2.73;;
3597;SDS011;1813;52.016;8.714;2024-03-23T13:19:10;4.57;;;2.70;;
3597;SDS011;1813;52.016;8.714;2024-03-23T13:21:41;4.80;;;2.67;;
3597;SDS011;1813;52.016;8.714;2024-03-23T13:24:12;3.27;;;2.47;;
3597;SDS011;1813;52.016;8.714;2024-03-23T13:26:43;4.87;;;2.80;;
3597;SDS011;1813;52.016;8.714;2024-03-23T13:29:14;6.20;;;2.53;;
3597;SDS011;1813;52.016;8.714;2024-03-23T13:31:44;3.63;;;2.80;;
3597;SDS011;1813;52.016;8.714;2024-03-23T13:34:18;4.90;;;3.00;;
3597;SDS011;1813;52.016;8.714;2024-03-23T13:36:49;3.60;;;2.87;;
3597;SDS011;1813;52.016;8.714;2024-03-23T13:39:20;3.33;;;1.90;;
3597;SDS011;1813;52.016;8.714;2024-03-23T13:41:51;2.00;;;1.90;;
3597;SDS011;1813;52.016;8.714;2024-03-23T13:44:22;2.07;;;1.90;;
3597;SDS011;1813;52.016;8.714;2024-03-23T13:46:53;2.57;;;1.97;;
3597;SDS011;1813;52.016;8.714;2024-03-23T13:49:27;2.70;;;2.50;;
3597;SDS011;1813;52.016;8.714;2024-03-23T13:51:59;3.67;;;2.13;;
3597;SDS011;1813;52.016;8.714;2024-03-23T13:54:30;2.33;;;1.83;;
3597;SDS011;1813;52.016;8.714;2024-03-23T13:57:01;3.93;;;2.00;;
3597;SDS011;1813;52.016;8.714;2024-03-23T13:59:32;5.40;;;2.10;;
3597;SDS011;1813;52.016;8.714;2024-03-23T14:02:03;1.80;;;1.70;;
3597;SDS011;1813;52.016;8.714;2024-03-23T14:04:36;4.47;;;2.10;;
3597;SDS011;1813;52.016;8.714;2024-03-23T14:07:07;3.47;;;1.97;;
3597;SDS011;1813;52.016;8.714;2024-03-23T14:09:38;3.30;;;1.73;;
3597;SDS011;1813;52.016;8.714;2024-03-23T14:12:08;4.90;;;2.17;;
3597;SDS011;1813;52.016;8.714;2024-03-23T14:14:39;5.13;;;2.20;;
3597;SDS011;1813;52.016;8.714;2024-03-23T14:17:10;6.50;;;1.90;;
3597;SDS011;1813;52.016;8.714;2024-03-23T14:19:44;3.23;;;2.10;;
3597;SDS011;1813;52.016;8.714;2024-03-23T14:22:14;4.80;;;1.80;;
3597;SDS011;1813;52.016;8.714;2024-03-23T14:24:45;4.90;;;2.40;;
3597;SDS011;1813;52.016;8.714;2024-03-23T14:27:16;4.60;;;2.53;;
3597;SDS011;1813;52.016;8.714;2024-03-23T14:29:47;4.57;;;2.10;;
3597;SDS011;1813;52.016;8.714;2024-03-23T14:32:18;4.27;;;2.33;;
3597;SDS011;1813;52.016;8.714;2024-03-23T14:34:51;6.90;;;2.80;;
3597;SDS011;1813;52.016;8.714;2024-03-23T14:37:22;5.20;;;2.60;;
3597;SDS011;1813;52.016;8.714;2024-03-23T14:39:53;3.80;;;2.10;;
3597;SDS011;1813;52.016;8.714;2024-03-23T14:42:26;6.13;;;2.60;;
3597;SDS011;1813;52.016;8.714;2024-03-23T14:44:56;2.00;;;1.73;;
3597;SDS011;1813;52.016;8.714;2024-03-23T14:47:27;3.33;;;1.80;;
3597;SDS011;1813;52.016;8.714;2024-03-23T14:50:01;3.87;;;1.90;;
3597;SDS011;1813;52.016;8.714;2024-03-23T14:52:32;2.20;;;1.97;;
3597;SDS011;1813;52.016;8.714;2024-03-23T14:55:03;3.37;;;2.03;;
3597;SDS011;1813;52.016;8.714;2024-03-23T14:57:34;2.97;;;1.70;;
3597;SDS011;1813;52.016;8.714;2024-03-23T15:00:06;2.30;;;1.70;;
3597;SDS011;1813;52.016;8.714;2024-03-23T15:02:37;7.37;;;3.13;;
3597;SDS011;1813;52.016;8.714;2024-03-23T15:05:11;2.13;;;2.03;;
3597;SDS011;1813;52.016;8.714;2024-03-23T15:07:42;3.33;;;2.23;;
3597;SDS011;1813;52.016;8.714;2024-03-23T15:10:13;7.50;;;2.70;;
3597;SDS011;1813;52.016;8.714;2024-03-23T15:12:44;2.70;;;2.00;;
3597;SDS011;1813;52.016;8.714;2024-03-23T15:15:15;5.47;;;2.20;;
3597;SDS011;1813;52.016;8.714;2024-03-23T15:17:46;2.57;;;2.33;;
3597;SDS011;1813;52.016;8.714;2024-03-23T15:20:19;2.10;;;1.90;;
3597;SDS011;1813;52.016;8.714;2024-03-23T15:22:50;3.77;;;1.90;;
3597;SDS011;1813;52.016;8.714;2024-03-23T15:25:20;1.60;;;1.50;;
3597;SDS011;1813;52.016;8.714;2024-03-23T15:27:51;2.23;;;1.70;;
3597;SDS011;1813;52.016;8.714;2024-03-23T15:30:25;3.20;;;2.00;;
3597;SDS011;1813;52.016;8.714;2024-03-23T15:32:56;3.80;;;2.20;;
3597;SDS011;1813;52.016;8.714;2024-03-23T15:35:29;4.03;;;2.23;;
3597;SDS011;1813;52.016;8.714;2024-03-23T15:38:00;3.70;;;2.33;;
3597;SDS011;1813;52.016;8.714;2024-03-23T15:40:31;5.33;;;2.57;;
3597;SDS011;1813;52.016;8.714;2024-03-23T15:43:02;4.50;;;2.70;;
3597;SDS011;1813;52.016;8.714;2024-03-23T15:45:33;3.40;;;2.47;;
3597;SDS011;1813;52.016;8.714;2024-03-23T15:48:04;4.40;;;2.83;;
3597;SDS011;1813;52.016;8.714;2024-03-23T15:50:38;4.87;;;2.80;;
3597;SDS011;1813;52.016;8.714;2024-03-23T15:53:10;4.70;;;2.90;;
3597;SDS011;1813;52.016;8.714;2024-03-23T15:55:41;5.03;;;2.63;;
3597;SDS011;1813;52.016;8.714;2024-03-23T15:58:12;2.83;;;2.63;;
3597;SDS011;1813;52.016;8.714;2024-03-23T16:00:42;5.33;;;2.70;;
3597;SDS011;1813;52.016;8.714;2024-03-23T16:03:13;3.33;;;2.50;;
3597;SDS011;1813;52.016;8.714;2024-03-23T16:05:52;4.47;;;3.00;;
3597;SDS011;1813;52.016;8.714;2024-03-23T16:08:23;4.87;;;3.10;;
3597;SDS011;1813;52.016;8.714;2024-03-23T16:10:54;5.37;;;2.83;;
3597;SDS011;1813;52.016;8.714;2024-03-23T16:13:25;8.93;;;3.00;;
3597;SDS011;1813;52.016;8.714;2024-03-23T16:15:56;6.43;;;3.20;;
3597;SDS011;1813;52.016;8.714;2024-03-23T16:18:27;8.50;;;3.27;;
3597;SDS011;1813;52.016;8.714;2024-03-23T16:21:01;5.70;;;2.80;;
3597;SDS011;1813;52.016;8.714;2024-03-23T16:23:34;9.43;;;3.33;;
3597;SDS011;1813;52.016;8.714;2024-03-23T16:26:06;7.33;;;3.43;;
3597;SDS011;1813;52.016;8.714;2024-03-23T16:28:37;6.07;;;3.20;;
3597;SDS011;1813;52.016;8.714;2024-03-23T16:31:08;6.37;;;3.43;;
3597;SDS011;1813;52.016;8.714;2024-03-23T16:33:41;6.50;;;3.70;;
3597;SDS011;1813;52.016;8.714;2024-03-23T16:36:15;9.43;;;3.90;;
3597;SDS011;1813;52.016;8.714;2024-03-23T16:38:47;8.40;;;4.00;;